Time;durP1;ratioP1;P1;durP2;ratioP2;P2;SDS_P1;SDS_P2;PMS_P1;PMS_P2;Temp;Humidity;BMP_temperature;BMP_pressure;BME280_temperature;BME280_humidity;BME280_pressure;Samples;Min_cycle;Max_cycle;Signal;HPM_P1;HPM_P2
2022/06/20 00:00:16;;;;;;;2.13;1.67;;;;;;;17.35;80.86;94567.88;5074133;28;20616;-62
2022/06/20 00:02:53;;;;;;;1.92;1.58;;;;;;;17.18;82.10;94557.91;5073463;28;20179;-64
2022/06/20 00:05:23;;;;;;;2.65;1.73;;;;;;;17.14;82.64;94557.44;5074084;28;20209;-61
2022/06/20 00:07:49;;;;;;;1.95;1.55;;;;;;;17.17;83.36;94559.66;5073319;28;20205;-61
2022/06/20 00:10:17;;;;;;;2.53;1.58;;;;;;;17.24;82.96;94565.72;5073974;28;20205;-63
2022/06/20 00:12:43;;;;;;;1.70;1.40;;;;;;;17.33;82.61;94561.31;5073112;28;20173;-59
2022/06/20 00:15:22;;;;;;;2.03;1.70;;;;;;;17.63;81.92;94563.03;5073136;28;20228;-59
2022/06/20 00:17:47;;;;;;;2.17;1.77;;;;;;;17.64;81.97;94567.19;5073546;28;20252;-59
2022/06/20 00:20:15;;;;;;;1.73;1.63;;;;;;;17.41;81.66;94567.19;5073610;28;20278;-61
2022/06/20 00:22:40;;;;;;;4.25;2.35;;;;;;;17.20;83.21;94546.50;5073566;28;20591;-61
2022/06/20 00:25:06;;;;;;;3.97;2.00;;;;;;;16.96;83.85;94546.66;5073375;28;20208;-62
2022/06/20 00:27:31;;;;;;;3.00;2.10;;;;;;;16.85;84.50;94541.91;5072831;28;20291;-61
2022/06/20 00:29:57;;;;;;;3.85;1.95;;;;;;;16.63;85.94;94525.53;5072441;28;20254;-62
2022/06/20 00:32:22;;;;;;;4.32;2.45;;;;;;;16.75;87.02;94536.19;5072961;28;20635;-63
2022/06/20 00:34:48;;;;;;;2.40;2.20;;;;;;;16.81;85.21;94561.19;5073199;28;20296;-63
2022/06/20 00:37:18;;;;;;;2.72;2.03;;;;;;;16.95;83.87;94572.53;5071454;28;20565;-61
2022/06/20 00:39:44;;;;;;;2.63;2.03;;;;;;;17.18;83.30;94575.88;5073161;28;20201;-64
2022/06/20 00:42:10;;;;;;;5.93;2.00;;;;;;;17.13;83.26;94580.75;5072741;28;20566;-60
2022/06/20 00:44:41;;;;;;;2.75;1.98;;;;;;;16.89;84.37;94568.84;5072832;28;20299;-62
2022/06/20 00:47:12;;;;;;;4.28;2.25;;;;;;;16.86;85.49;94547.84;5072750;28;20200;-61
2022/06/20 00:49:42;;;;;;;2.83;2.30;;;;;;;16.92;84.40;94555.69;5072911;28;20208;-60
2022/06/20 00:52:29;;;;;;;2.90;1.63;;;;;;;16.84;83.62;94578.03;5071113;28;20180;-60
2022/06/20 00:54:59;;;;;;;2.30;1.98;;;;;;;17.04;82.39;94595.41;5071451;28;20742;-62
2022/06/20 00:57:37;;;;;;;3.90;1.98;;;;;;;16.91;82.56;94589.25;5070924;28;20635;-62
2022/06/20 01:00:16;;;;;;;3.90;1.73;;;;;;;16.76;81.80;94586.59;5072694;28;20682;-61
2022/06/20 01:02:55;;;;;;;3.90;1.80;;;;;;;16.87;80.78;94605.97;5072613;28;20263;-62
2022/06/20 01:05:37;;;;;;;2.47;1.83;;;;;;;16.69;81.70;94588.22;5072353;28;20288;-63
2022/06/20 01:08:18;;;;;;;5.80;2.03;;;;;;;16.56;82.95;94572.56;5073333;28;20204;-64
2022/06/20 01:10:59;;;;;;;2.08;1.98;;;;;;;16.53;82.71;94571.13;5072223;28;20201;-62
2022/06/20 01:13:26;;;;;;;2.83;2.22;;;;;;;16.58;83.21;94558.59;5072652;28;20181;-61
2022/06/20 01:15:55;;;;;;;3.70;1.90;;;;;;;16.62;83.83;94552.16;5072517;28;20254;-61
2022/06/20 01:18:24;;;;;;;3.33;2.17;;;;;;;16.90;82.82;94570.47;5070958;28;20177;-60
2022/06/20 01:20:51;;;;;;;3.53;2.00;;;;;;;16.87;82.16;94564.88;5072370;28;20200;-63
2022/06/20 01:23:32;;;;;;;2.40;1.90;;;;;;;16.79;82.80;94553.66;5072378;28;20633;-60
2022/06/20 01:26:28;;;;;;;2.15;1.80;;;;;;;16.87;83.59;94552.03;5071945;28;20227;-60
2022/06/20 01:29:01;;;;;;;2.13;1.92;;;;;;;16.91;83.00;94566.13;5072033;28;20309;-60
2022/06/20 01:31:33;;;;;;;3.10;1.80;;;;;;;16.86;82.48;94569.19;5071975;28;20526;-63
2022/06/20 01:34:01;;;;;;;1.63;1.52;;;;;;;16.82;82.72;94562.00;5070859;28;20268;-60
2022/06/20 01:39:16;;;;;;;4.13;1.73;;;;;;;16.43;86.90;94521.75;5072575;28;20601;-62
2022/06/20 01:44:27;;;;;;;1.77;1.67;;;;;;;16.78;85.22;94558.97;5072328;28;20587;-61
2022/06/20 01:46:52;;;;;;;2.30;1.77;;;;;;;16.65;85.99;94540.75;5071885;28;20165;-62
2022/06/20 01:49:23;;;;;;;2.53;1.80;;;;;;;16.54;86.53;94534.22;5072031;28;20264;-64
2022/06/20 01:52:04;;;;;;;1.92;1.58;;;;;;;16.86;85.23;94552.97;5076171;23;20317;-60
2022/06/20 01:54:32;;;;;;;2.45;2.25;;;;;;;16.73;86.22;94533.81;5071812;28;20573;-60
2022/06/20 01:56:58;;;;;;;3.83;3.42;;;;;;;16.56;87.39;94524.59;5071583;28;20177;-62
2022/06/20 01:59:30;;;;;;;5.88;3.25;;;;;;;16.33;89.16;94531.44;5071504;28;20562;-60
2022/06/20 02:01:56;;;;;;;4.32;3.22;;;;;;;16.24;90.33;94522.16;5071893;28;20305;-60
2022/06/20 02:04:25;;;;;;;9.18;3.47;;;;;;;16.38;89.39;94538.63;5071639;28;21828;-62
2022/06/20 02:06:52;;;;;;;2.83;2.58;;;;;;;16.28;88.97;94532.91;5071354;28;20556;-62
2022/06/20 02:09:18;;;;;;;3.17;2.65;;;;;;;16.18;89.70;94527.94;5053503;28;20172;-63
2022/06/20 02:11:46;;;;;;;4.80;2.92;;;;;;;16.48;89.26;94541.78;5071406;28;20177;-60
2022/06/20 02:14:35;;;;;;;2.88;2.67;;;;;;;16.18;91.54;94524.59;5071228;28;20534;-61
2022/06/20 02:17:09;;;;;;;2.90;2.60;;;;;;;15.90;91.22;94478.88;5064787;28;20197;-62
2022/06/20 02:19:42;;;;;;;2.95;2.25;;;;;;;16.35;89.37;94549.22;5071439;28;20543;-60
2022/06/20 02:22:09;;;;;;;4.13;2.67;;;;;;;16.44;87.86;94553.34;5071180;28;20265;-62
2022/06/20 02:24:39;;;;;;;5.00;2.45;;;;;;;16.33;87.41;94548.56;5070102;28;20289;-60
2022/06/20 02:27:11;;;;;;;2.53;2.33;;;;;;;16.35;88.08;94544.88;5069882;28;20193;-63
2022/06/20 02:29:36;;;;;;;1.67;1.58;;;;;;;16.17;84.08;94590.50;5072992;28;20662;-62
2022/06/20 02:32:08;;;;;;;1.83;1.65;;;;;;;16.11;83.29;94598.84;5069895;28;20367;-63
2022/06/20 02:34:34;;;;;;;2.42;1.75;;;;;;;15.82;84.99;94565.25;5071214;28;20271;-62
2022/06/20 02:37:03;;;;;;;4.13;1.65;;;;;;;15.44;88.00;94519.84;5071298;28;20200;-60
2022/06/20 02:39:30;;;;;;;2.90;1.95;;;;;;;15.38;89.72;94523.00;5071217;28;20197;-60
2022/06/20 02:42:01;;;;;;;1.80;1.70;;;;;;;15.27;91.66;94523.34;5071441;28;20258;-60
2022/06/20 02:44:28;;;;;;;4.18;1.85;;;;;;;15.17;93.23;94530.41;5073027;28;20625;-64
2022/06/20 02:46:55;;;;;;;3.03;2.03;;;;;;;14.98;95.46;94521.28;5070231;28;20177;-61
2022/06/20 02:49:25;;;;;;;2.05;1.85;;;;;;;14.71;97.74;94529.22;5071418;28;20526;-61
2022/06/20 02:51:53;;;;;;;2.45;2.25;;;;;;;14.79;98.25;94534.38;5071935;28;20181;-59
2022/06/20 02:54:27;;;;;;;2.95;2.15;;;;;;;14.60;99.79;94530.34;5074603;28;20204;-60
2022/06/20 02:57:00;;;;;;;2.43;2.23;;;;;;;14.41;100.00;94522.94;5074886;28;20185;-61
2022/06/20 02:59:36;;;;;;;3.58;2.03;;;;;;;14.37;100.00;94511.44;5073281;28;20751;-61
2022/06/20 03:02:08;;;;;;;3.40;2.40;;;;;;;14.60;100.00;94535.47;5074469;28;20157;-61
2022/06/20 03:04:37;;;;;;;3.08;2.05;;;;;;;14.63;100.00;94542.81;5074532;28;20228;-64
2022/06/20 03:07:09;;;;;;;4.50;2.30;;;;;;;14.59;100.00;94540.72;5074550;28;20211;-62
2022/06/20 03:09:39;;;;;;;2.88;2.30;;;;;;;14.62;100.00;94530.19;5074360;28;20701;-61
2022/06/20 03:12:07;;;;;;;5.35;1.95;;;;;;;14.79;100.00;94547.16;5079943;23;20722;-61
2022/06/20 03:14:51;;;;;;;2.03;1.80;;;;;;;14.71;99.94;94539.47;5074321;28;20205;-63
2022/06/20 03:17:20;;;;;;;2.90;2.20;;;;;;;14.63;99.75;94532.59;5074527;28;20161;-64
2022/06/20 03:19:57;;;;;;;2.25;2.05;;;;;;;14.56;100.00;94536.75;5074146;28;20209;-61
2022/06/20 03:22:33;;;;;;;5.33;2.13;;;;;;;14.40;100.00;94525.66;5074371;28;20238;-61
2022/06/20 03:24:59;;;;;;;2.50;1.75;;;;;;;14.55;100.00;94534.31;5056078;28;20204;-60
2022/06/20 03:27:28;;;;;;;2.58;2.03;;;;;;;14.43;100.00;94538.94;5073879;28;20204;-60
2022/06/20 03:29:59;;;;;;;3.13;2.20;;;;;;;14.38;100.00;94545.47;5075242;28;20208;-60
2022/06/20 03:32:25;;;;;;;2.65;2.17;;;;;;;14.44;100.00;94540.56;5073941;28;20170;-60
2022/06/20 03:34:53;;;;;;;2.65;1.88;;;;;;;14.48;99.44;94554.63;5073540;28;20204;-60
2022/06/20 03:37:19;;;;;;;2.20;2.10;;;;;;;14.53;99.12;94547.28;5073809;28;20175;-63
2022/06/20 03:39:47;;;;;;;3.35;2.10;;;;;;;14.42;100.00;94539.91;5073922;28;20232;-63
2022/06/20 03:42:12;;;;;;;2.22;2.08;;;;;;;14.59;99.89;94550.97;5073560;28;20180;-63
2022/06/20 03:44:44;;;;;;;2.00;1.70;;;;;;;14.60;97.82;94560.25;5073780;28;20197;-64
2022/06/20 03:47:17;;;;;;;4.00;1.80;;;;;;;14.57;97.83;94556.25;5079038;23;20231;-60
2022/06/20 03:49:52;;;;;;;5.25;4.85;;;;;;;14.84;100.00;94553.44;5073701;28;20258;-65
2022/06/20 03:52:30;;;;;;;5.68;5.28;;;;;;;15.49;100.00;94551.72;5073616;28;20184;-62
2022/06/20 03:55:04;;;;;;;2.93;1.87;;;;;;;15.38;100.00;94564.81;5073764;28;20193;-64
2022/06/20 03:57:39;;;;;;;3.45;2.03;;;;;;;15.24;100.00;94591.06;5073627;28;20177;-63
2022/06/20 04:00:11;;;;;;;1.87;1.70;;;;;;;15.34;100.00;94593.47;5073669;28;20669;-64
2022/06/20 04:02:39;;;;;;;3.20;1.90;;;;;;;15.31;100.00;94598.91;5073385;28;20169;-64
2022/06/20 04:05:13;;;;;;;1.98;1.80;;;;;;;15.29;100.00;94588.81;5072830;28;20216;-64
2022/06/20 04:08:00;;;;;;;2.80;2.00;;;;;;;15.32;100.00;94588.50;5071780;28;20208;-63
2022/06/20 04:11:07;;;;;;;2.10;1.67;;;;;;;15.33;100.00;94587.53;5072862;28;20209;-64
2022/06/20 04:13:29;;;;;;;1.85;1.55;;;;;;;15.48;100.00;94595.41;5070750;28;20681;-63
2022/06/20 04:16:18;;;;;;;6.50;2.20;;;;;;;15.45;100.00;94585.50;5071696;28;20208;-64
2022/06/20 04:18:52;;;;;;;6.28;2.10;;;;;;;15.40;100.00;94573.13;5071567;28;20635;-64
2022/06/20 04:21:18;;;;;;;3.25;2.95;;;;;;;15.67;100.00;94597.66;5073661;28;20602;-61
2022/06/20 04:24:14;;;;;;;3.10;1.98;;;;;;;15.65;100.00;94581.63;5073198;28;20263;-63
2022/06/20 04:26:47;;;;;;;2.70;2.38;;;;;;;15.80;100.00;94580.81;5071565;28;20177;-61
2022/06/20 04:29:35;;;;;;;3.83;2.10;;;;;;;15.94;100.00;94569.88;5072415;28;20275;-60
2022/06/20 04:32:09;;;;;;;2.58;2.28;;;;;;;16.10;100.00;94569.03;5071198;28;20172;-60
2022/06/20 04:34:49;;;;;;;3.22;1.83;;;;;;;16.40;100.00;94537.47;5072599;28;20261;-63
2022/06/20 04:37:44;;;;;;;2.35;2.15;;;;;;;16.47;100.00;94617.97;5072730;28;20238;-61
2022/06/20 04:40:25;;;;;;;1.90;1.80;;;;;;;16.93;100.00;94553.91;5069575;28;20224;-62
2022/06/20 04:43:01;;;;;;;2.13;1.92;;;;;;;16.86;100.00;94604.34;5075434;28;20192;-65
2022/06/20 04:45:39;;;;;;;2.03;1.85;;;;;;;17.06;100.00;94602.94;5073831;28;20295;-64
2022/06/20 04:48:19;;;;;;;3.10;2.40;;;;;;;17.27;100.00;94542.25;5072555;28;20212;-64
2022/06/20 04:50:48;;;;;;;4.50;1.90;;;;;;;17.56;100.00;94557.78;5072671;28;20254;-63
2022/06/20 04:53:18;;;;;;;4.63;2.35;;;;;;;17.82;100.00;94575.38;5072394;28;20204;-65
2022/06/20 04:55:56;;;;;;;3.05;2.05;;;;;;;17.69;95.65;94654.91;5072543;28;20211;-64
2022/06/20 04:58:35;;;;;;;2.03;1.92;;;;;;;17.50;95.61;94640.72;5072609;28;20172;-62
2022/06/20 05:01:02;;;;;;;3.80;2.65;;;;;;;17.26;100.00;94501.31;5071349;28;20755;-64
2022/06/20 05:03:32;;;;;;;2.42;2.22;;;;;;;17.53;100.00;94526.47;5072186;28;20587;-64
2022/06/20 05:06:00;;;;;;;3.55;2.35;;;;;;;17.83;100.00;94604.47;5071441;28;20208;-62
2022/06/20 05:08:39;;;;;;;3.67;2.75;;;;;;;17.95;96.43;94639.06;5072196;28;20200;-63
2022/06/20 05:11:42;;;;;;;3.22;2.20;;;;;;;17.76;95.60;94627.50;5072538;28;20651;-61
2022/06/20 05:14:34;;;;;;;2.67;2.40;;;;;;;17.64;96.10;94626.31;5072150;28;20173;-61
2022/06/20 05:17:03;;;;;;;4.43;2.35;;;;;;;17.57;98.13;94589.44;5070363;28;20204;-61
2022/06/20 05:19:36;;;;;;;2.90;2.38;;;;;;;17.44;98.64;94584.03;5077816;23;20263;-61
2022/06/20 05:22:11;;;;;;;5.40;2.30;;;;;;;17.55;97.89;94601.66;5072050;28;20169;-63
2022/06/20 05:24:39;;;;;;;3.85;2.47;;;;;;;17.42;98.63;94575.69;5071945;28;20210;-61
2022/06/20 05:27:14;;;;;;;9.00;3.03;;;;;;;17.52;99.52;94589.94;5071809;28;20177;-61
2022/06/20 05:29:43;;;;;;;3.28;2.97;;;;;;;17.55;97.56;94617.09;5075718;28;20228;-63
2022/06/20 05:32:14;;;;;;;6.35;2.40;;;;;;;17.52;99.20;94574.53;5070200;28;20586;-62
2022/06/20 05:34:49;;;;;;;4.88;2.90;;;;;;;17.65;100.00;94570.56;5071239;28;20208;-61
2022/06/20 05:37:18;;;;;;;2.70;2.30;;;;;;;17.75;100.00;94563.38;5071252;28;20624;-64
2022/06/20 05:39:43;;;;;;;3.85;2.70;;;;;;;17.83;100.00;94569.25;5071842;28;20732;-64
2022/06/20 05:42:13;;;;;;;5.30;2.63;;;;;;;17.87;99.75;94570.50;5070380;28;20609;-62
2022/06/20 05:44:38;;;;;;;3.95;2.55;;;;;;;17.94;98.43;94581.69;5071703;28;20678;-64
2022/06/20 05:47:08;;;;;;;5.07;2.63;;;;;;;17.98;98.94;94588.06;5071723;28;20199;-62
2022/06/20 05:49:41;;;;;;;7.55;2.58;;;;;;;17.75;99.34;94555.69;5070406;28;20192;-63
2022/06/20 05:52:08;;;;;;;6.35;3.08;;;;;;;18.05;98.11;94596.69;5070441;28;20197;-61
2022/06/20 05:54:42;;;;;;;3.50;3.00;;;;;;;18.12;98.48;94583.94;5076020;23;20690;-64
2022/06/20 05:57:13;;;;;;;3.85;3.03;;;;;;;18.18;98.30;94594.28;5071513;28;20172;-63
2022/06/20 05:59:53;;;;;;;5.07;3.63;;;;;;;18.21;98.22;94583.66;5077085;23;20221;-64
2022/06/20 06:02:40;;;;;;;4.07;3.13;;;;;;;18.59;97.15;94610.09;5072468;28;20173;-60
2022/06/20 06:05:27;;;;;;;4.90;2.75;;;;;;;18.65;95.79;94624.03;5072033;28;20196;-61
2022/06/20 06:07:59;;;;;;;6.55;3.10;;;;;;;18.76;97.70;94597.81;5069936;28;20303;-63
2022/06/20 06:10:27;;;;;;;5.95;3.13;;;;;;;18.86;95.56;94634.41;5071653;28;20205;-62
2022/06/20 06:13:14;;;;;;;4.80;2.55;;;;;;;18.67;91.80;94678.72;5071459;28;20738;-63
2022/06/20 06:16:46;;;;;;;4.07;2.60;;;;;;;18.66;94.16;94636.75;5071718;28;20197;-62
2022/06/20 06:18:36;;;;;;;4.13;2.20;;;;;;;18.58;93.37;94636.84;5071891;28;20196;-62
2022/06/20 06:21:02;;;;;;;4.57;2.67;;;;;;;18.81;93.80;94629.78;5070454;28;20262;-64
2022/06/20 06:23:28;;;;;;;3.10;2.70;;;;;;;18.95;91.11;94666.81;5071425;28;20184;-61
2022/06/20 06:25:54;;;;;;;3.15;2.28;;;;;;;19.02;89.00;94712.31;5071819;28;20196;-63
2022/06/20 06:28:23;;;;;;;3.72;2.78;;;;;;;18.95;90.47;94679.69;5073768;28;20204;-64
2022/06/20 06:30:58;;;;;;;3.75;2.75;;;;;;;19.02;89.88;94690.88;5075359;28;20221;-61
2022/06/20 06:33:26;;;;;;;4.35;2.90;;;;;;;19.07;88.71;94691.13;5074224;28;20304;-63
2022/06/20 06:36:09;;;;;;;5.00;2.45;;;;;;;19.06;88.43;94685.19;5075740;28;20201;-61
2022/06/20 06:38:43;;;;;;;4.32;3.13;;;;;;;19.15;89.07;94670.41;5075209;28;20207;-64
2022/06/20 06:41:45;;;;;;;8.50;4.18;;;;;;;19.26;89.74;94662.22;5075729;28;20193;-62
2022/06/20 06:44:21;;;;;;;3.70;2.30;;;;;;;19.19;85.45;94728.34;5053458;28;20286;-64
2022/06/20 06:46:51;;;;;;;4.05;2.28;;;;;;;19.05;85.52;94690.50;5074917;28;20185;-63
2022/06/20 06:49:35;;;;;;;4.88;2.20;;;;;;;19.08;86.04;94674.69;5075351;28;20177;-63
2022/06/20 06:52:18;;;;;;;3.67;2.25;;;;;;;19.41;84.13;94709.44;5075698;28;20189;-61
2022/06/20 06:54:54;;;;;;;4.82;2.33;;;;;;;19.59;86.13;94671.13;5074690;28;20690;-63
2022/06/20 06:57:53;;;;;;;8.93;3.55;;;;;;;19.76;89.78;94587.31;5074680;28;20173;-63
2022/06/20 07:00:21;;;;;;;8.40;2.80;;;;;;;19.82;90.57;94562.53;5062370;28;20709;-62
2022/06/20 07:03:18;;;;;;;8.82;3.97;;;;;;;19.95;89.65;94581.50;5074479;28;20263;-60
2022/06/20 07:05:52;;;;;;;8.20;3.65;;;;;;;19.81;90.50;94564.34;5074482;28;20585;-62
2022/06/20 07:08:20;;;;;;;4.22;3.60;;;;;;;20.07;88.94;94592.09;5074479;28;20224;-64
2022/06/20 07:10:55;;;;;;;8.50;4.78;;;;;;;20.14;90.70;94564.53;5073283;28;20674;-64
2022/06/20 07:13:23;;;;;;;8.98;5.15;;;;;;;20.35;90.38;94561.91;5075125;28;20283;-64
2022/06/20 07:15:53;;;;;;;8.52;5.15;;;;;;;20.35;89.05;94592.91;5074867;28;20262;-62
2022/06/20 07:18:36;;;;;;;9.63;5.35;;;;;;;20.24;90.88;94549.53;5074267;28;20184;-63
2022/06/20 07:21:04;;;;;;;15.45;7.57;;;;;;;20.34;90.74;94549.19;5074824;28;20564;-61
2022/06/20 07:23:29;;;;;;;14.10;6.45;;;;;;;20.61;91.75;94531.03;5074151;28;20272;-64
2022/06/20 07:25:56;;;;;;;16.40;8.60;;;;;;;20.71;89.63;94577.97;5074534;28;20285;-64
2022/06/20 07:28:45;;;;;;;78.07;18.95;;;;;;;20.91;89.88;94568.47;5074083;28;20209;-62
2022/06/20 07:31:18;;;;;;;73.07;18.60;;;;;;;21.10;89.71;94577.31;5083615;22;20227;-63
2022/06/20 07:34:08;;;;;;;11.98;6.20;;;;;;;21.11;87.09;94617.69;5073868;28;20537;-63
2022/06/20 07:36:49;;;;;;;15.43;7.50;;;;;;;21.53;85.67;94637.28;5053964;28;20205;-63
2022/06/20 07:39:26;;;;;;;16.73;6.28;;;;;;;21.36;84.69;94657.53;5053071;28;20646;-61
2022/06/20 07:41:59;;;;;;;14.25;6.07;;;;;;;21.55;84.72;94643.06;5053885;28;20237;-64
2022/06/20 07:44:31;;;;;;;13.48;7.53;;;;;;;21.71;83.77;94671.94;5053755;28;20205;-63
2022/06/20 07:47:11;;;;;;;217.50;42.75;;;;;;;22.06;81.80;94708.06;5053749;28;20288;-64
2022/06/20 07:49:45;;;;;;;22.27;10.63;;;;;;;22.17;79.56;94738.53;5086205;23;20224;-62
2022/06/20 07:52:18;;;;;;;31.17;12.40;;;;;;;22.40;81.37;94706.03;5073658;28;20193;-61
2022/06/20 07:54:53;;;;;;;105.35;27.02;;;;;;;22.44;74.07;94716.81;5073551;28;20189;-64
2022/06/20 07:57:27;;;;;;;33.83;12.98;;;;;;;22.59;71.93;94735.56;5073639;28;20198;-61
2022/06/20 08:00:19;;;;;;;13.70;7.00;;;;;;;22.60;69.59;94764.88;5073257;28;20235;-61
2022/06/20 08:03:18;;;;;;;12.18;4.95;;;;;;;22.84;71.83;94702.84;5071841;28;20625;-61
2022/06/20 08:06:12;;;;;;;17.08;6.22;;;;;;;22.70;69.47;94722.00;5066814;28;20213;-61
2022/06/20 08:08:47;;;;;;;10.50;4.50;;;;;;;22.86;62.76;94821.91;5073302;28;20224;-62
2022/06/20 08:11:41;;;;;;;5.88;3.83;;;;;;;22.91;62.32;94762.44;5071787;28;20231;-63
2022/06/20 08:14:40;;;;;;;78.75;19.80;;;;;;;23.08;64.35;94702.16;5073075;28;20177;-60
2022/06/20 08:17:08;;;;;;;62.38;15.50;;;;;;;23.21;62.88;94720.25;5073034;28;20177;-63
2022/06/20 08:19:35;;;;;;;11.20;3.67;;;;;;;23.21;62.17;94722.84;5072750;28;20700;-63
2022/06/20 08:22:29;;;;;;;8.65;2.45;;;;;;;23.18;56.54;94840.03;5072977;28;20215;-62
2022/06/20 08:25:15;;;;;;;3.47;2.00;;;;;;;23.21;56.98;94818.84;5073168;28;20212;-65
2022/06/20 08:27:44;;;;;;;4.25;2.55;;;;;;;23.45;59.90;94725.78;5071508;28;20226;-63
2022/06/20 08:30:14;;;;;;;5.10;2.28;;;;;;;23.46;60.89;94704.81;5072852;28;20204;-61
2022/06/20 08:33:09;;;;;;;4.70;2.80;;;;;;;23.65;58.85;94752.47;5073066;28;20181;-60
2022/06/20 08:35:48;;;;;;;4.00;2.70;;;;;;;23.79;61.12;94691.66;5072800;28;20201;-60
2022/06/20 08:38:27;;;;;;;11.60;2.50;;;;;;;23.81;58.29;94737.19;5072505;28;20181;-62
2022/06/20 08:41:19;;;;;;;3.85;2.10;;;;;;;23.92;57.06;94787.66;5071347;28;20208;-62
2022/06/20 08:44:21;;;;;;;4.28;2.38;;;;;;;23.82;53.08;94853.03;5072667;28;20204;-62
2022/06/20 08:47:24;;;;;;;5.50;2.95;;;;;;;24.19;58.98;94698.19;5073147;28;20561;-61
2022/06/20 08:50:19;;;;;;;9.70;3.30;;;;;;;24.34;60.45;94670.06;5071258;28;20585;-65
2022/06/20 08:53:17;;;;;;;8.43;3.25;;;;;;;24.30;57.38;94736.47;5071061;28;20189;-64
2022/06/20 08:55:51;;;;;;;12.65;2.30;;;;;;;24.16;55.26;94781.75;5037822;28;20201;-60
2022/06/20 08:58:37;;;;;;;4.00;2.33;;;;;;;24.52;58.21;94687.53;5072465;28;20281;-61
2022/06/20 09:01:05;;;;;;;5.38;4.47;;;;;;;24.72;51.07;94904.00;5051841;28;20205;-64
2022/06/20 09:03:37;;;;;;;7.60;2.67;;;;;;;24.31;50.74;94882.81;5070935;28;20193;-64
2022/06/20 09:06:27;;;;;;;3.75;1.88;;;;;;;24.39;46.47;94971.75;5071922;28;20545;-64
2022/06/20 09:09:11;;;;;;;5.78;2.08;;;;;;;24.72;47.40;94894.38;5072319;28;20606;-61
2022/06/20 09:11:52;;;;;;;6.13;2.25;;;;;;;25.10;47.38;94844.06;5072276;28;20252;-66
2022/06/20 09:14:31;;;;;;;7.03;1.83;;;;;;;25.26;47.17;94765.44;5072535;28;20212;-63
2022/06/20 09:17:03;;;;;;;5.88;1.80;;;;;;;25.17;44.62;94732.91;5071696;28;20238;-62
2022/06/20 09:19:59;;;;;;;3.78;1.50;;;;;;;25.29;42.62;94770.22;5070622;28;20224;-63
2022/06/20 09:22:30;;;;;;;2.42;1.63;;;;;;;25.48;43.35;94724.94;5071949;28;20580;-63
2022/06/20 09:25:15;;;;;;;1.73;1.60;;;;;;;25.65;44.97;94684.28;5071919;28;20213;-64
2022/06/20 09:27:52;;;;;;;5.90;1.70;;;;;;;25.95;45.68;94658.97;5071814;28;20209;-59
2022/06/20 09:30:22;;;;;;;3.15;2.85;;;;;;;26.17;48.53;94596.69;5071760;28;20271;-63
2022/06/20 09:32:50;;;;;;;2.47;1.73;;;;;;;26.32;45.76;94655.19;5072407;28;20176;-60
2022/06/20 09:35:53;;;;;;;2.80;1.83;;;;;;;26.02;44.68;94651.84;5070533;28;20704;-62
2022/06/20 09:38:37;;;;;;;1.55;1.45;;;;;;;26.24;47.32;94610.44;5072113;28;20211;-61
2022/06/20 09:41:39;;;;;;;4.10;2.00;;;;;;;26.32;43.10;94707.34;5070339;28;20196;-64
2022/06/20 09:44:26;;;;;;;6.45;1.80;;;;;;;26.62;44.88;94665.53;5072153;28;20180;-61
2022/06/20 09:47:00;;;;;;;2.10;1.92;;;;;;;26.75;46.27;94626.16;5071638;28;20685;-64
2022/06/20 09:49:41;;;;;;;1.58;1.48;;;;;;;26.59;44.59;94651.13;5070599;28;20219;-65
2022/06/20 09:52:36;;;;;;;1.60;1.38;;;;;;;26.31;40.36;94742.25;5071894;28;20215;-64
2022/06/20 09:55:19;;;;;;;6.28;1.63;;;;;;;26.58;43.10;94670.38;5071510;28;20220;-61
2022/06/20 09:57:59;;;;;;;1.25;1.17;;;;;;;26.81;43.45;94668.81;5071735;28;20193;-63
2022/06/20 10:00:29;;;;;;;3.33;1.50;;;;;;;26.95;42.18;94696.25;5071611;28;20208;-63
2022/06/20 10:03:10;;;;;;;8.98;1.58;;;;;;;26.94;40.56;94723.38;5074536;28;20222;-63
2022/06/20 10:05:46;;;;;;;5.65;1.63;;;;;;;26.95;41.59;94680.56;5074194;28;20208;-61
2022/06/20 10:08:38;;;;;;;3.28;1.45;;;;;;;26.67;35.59;94798.66;5075889;28;20230;-65
2022/06/20 10:11:25;;;;;;;3.53;1.60;;;;;;;26.80;38.50;94719.41;5079509;22;20718;-60
2022/06/20 10:14:28;;;;;;;1.50;1.40;;;;;;;27.10;40.72;94660.81;5074256;28;20242;-64
2022/06/20 10:17:09;;;;;;;1.98;1.75;;;;;;;27.52;42.15;94632.66;5077967;22;20224;-60
2022/06/20 10:19:43;;;;;;;22.30;1.98;;;;;;;27.77;39.08;94698.44;5075814;28;20211;-60
2022/06/20 10:22:52;;;;;;;3.65;1.55;;;;;;;27.89;37.21;94748.84;5075259;28;20195;-60
2022/06/20 10:25:26;;;;;;;2.83;1.65;;;;;;;27.86;38.99;94699.63;5075407;28;20213;-63
2022/06/20 10:28:01;;;;;;;1.65;1.55;;;;;;;28.04;40.21;94656.81;5074889;28;20223;-60
2022/06/20 10:30:27;;;;;;;3.83;1.70;;;;;;;28.14;38.96;94685.72;5075540;28;20696;-61
2022/06/20 10:33:07;;;;;;;4.22;1.60;;;;;;;27.94;35.21;94754.13;5075104;28;20191;-61
2022/06/20 10:35:54;;;;;;;6.68;1.60;;;;;;;28.45;39.68;94635.47;5075107;28;20208;-60
2022/06/20 10:38:40;;;;;;;2.78;1.48;;;;;;;27.90;35.03;94760.88;5075006;28;20238;-63
2022/06/20 10:41:27;;;;;;;1.42;1.23;;;;;;;28.32;35.70;94724.75;5075307;28;20204;-60
2022/06/20 10:44:07;;;;;;;2.50;1.48;;;;;;;28.26;36.01;94644.59;5074901;28;20651;-63
2022/06/20 10:46:48;;;;;;;1.50;1.40;;;;;;;28.73;38.68;94632.75;5074714;28;20695;-63
2022/06/20 10:49:42;;;;;;;2.63;1.80;;;;;;;28.83;38.56;94648.59;5074637;28;20200;-63
2022/06/20 10:52:28;;;;;;;3.88;3.13;;;;;;;29.07;34.46;94727.72;5079950;22;20232;-61
2022/06/20 10:55:30;;;;;;;1.60;1.50;;;;;;;28.32;34.63;94716.13;5074879;28;20209;-63
2022/06/20 10:58:29;;;;;;;1.38;1.20;;;;;;;27.97;35.99;94683.13;5074631;28;20263;-63
2022/06/20 11:01:18;;;;;;;1.88;1.55;;;;;;;29.17;37.46;94644.06;5075078;28;20200;-62
2022/06/20 11:04:04;;;;;;;2.03;1.50;;;;;;;29.17;34.53;94701.69;5053980;28;20271;-63
2022/06/20 11:06:52;;;;;;;1.70;1.50;;;;;;;29.71;34.07;94703.38;5073083;28;20307;-64
2022/06/20 11:09:32;;;;;;;3.08;1.73;;;;;;;30.05;35.92;94661.22;5074336;28;20628;-62
2022/06/20 11:12:14;;;;;;;2.15;1.35;;;;;;;30.21;33.18;94718.03;5074481;28;20161;-63
2022/06/20 11:14:51;;;;;;;1.15;1.15;;;;;;;30.54;31.13;94767.69;5073208;28;20744;-64
2022/06/20 11:17:35;;;;;;;1.45;1.30;;;;;;;30.10;31.32;94727.63;5074219;28;20169;-63
2022/06/20 11:20:17;;;;;;;1.67;1.40;;;;;;;30.20;30.70;94732.97;5074392;28;20224;-63
2022/06/20 11:22:46;;;;;;;6.72;1.35;;;;;;;29.05;33.43;94641.53;5074116;28;20165;-62
2022/06/20 11:27:59;;;;;;;5.25;1.70;;;;;;;30.05;31.58;94693.50;5079138;22;20239;-63
2022/06/20 11:30:35;;;;;;;1.25;1.00;;;;;;;30.15;30.68;94708.53;5072655;28;20277;-64
2022/06/20 11:33:13;;;;;;;1.98;1.30;;;;;;;30.24;26.89;94791.00;5074047;28;20199;-64
2022/06/20 11:35:58;;;;;;;3.42;1.50;;;;;;;30.22;27.35;94770.25;5073958;28;20283;-63
2022/06/20 11:38:36;;;;;;;2.60;1.23;;;;;;;29.46;27.35;94731.13;5074049;28;20180;-62
2022/06/20 11:41:09;;;;;;;1.73;1.40;;;;;;;29.23;27.99;94699.94;5073955;28;20215;-60
2022/06/20 11:43:51;;;;;;;1.80;1.50;;;;;;;29.70;31.56;94614.47;5073858;28;20175;-64
2022/06/20 11:46:35;;;;;;;2.42;1.75;;;;;;;29.88;29.18;94686.78;5074269;28;20572;-64
2022/06/20 11:49:07;;;;;;;2.60;2.38;;;;;;;30.07;30.79;94628.47;5073740;28;20207;-62
2022/06/20 11:52:11;;;;;;;2.88;2.33;;;;;;;30.16;30.33;94641.94;5072345;28;20196;-59
2022/06/20 11:54:50;;;;;;;3.53;2.58;;;;;;;30.48;29.67;94648.72;5052039;28;20219;-59
2022/06/20 11:57:25;;;;;;;7.82;5.80;;;;;;;30.87;32.25;94580.97;5073901;28;20191;-62
2022/06/20 11:59:52;;;;;;;10.55;9.50;;;;;;;31.18;30.87;94608.94;5073402;28;20248;-65
2022/06/20 12:02:33;;;;;;;4.70;2.20;;;;;;;31.50;31.38;94605.34;5073950;28;20599;-62
2022/06/20 12:05:31;;;;;;;2.67;1.33;;;;;;;31.68;27.42;94696.88;5073459;28;20192;-59
2022/06/20 12:08:08;;;;;;;3.17;1.40;;;;;;;30.98;29.86;94619.38;5047294;28;20231;-60
2022/06/20 12:10:45;;;;;;;1.95;1.70;;;;;;;31.53;27.98;94652.97;5073201;28;20211;-62
2022/06/20 12:13:40;;;;;;;2.15;1.55;;;;;;;31.68;29.99;94602.22;5073308;28;20169;-61
2022/06/20 12:16:15;;;;;;;2.83;1.40;;;;;;;31.59;28.86;94636.16;5073126;28;20205;-61
2022/06/20 12:24:25;;;;;;;2.42;1.27;;;;;;;31.48;29.79;94596.94;5072742;28;20227;-63
2022/06/20 12:26:52;;;;;;;1.20;0.88;;;;;;;31.21;31.60;94545.34;5073092;28;20193;-60
2022/06/20 12:29:23;;;;;;;2.10;1.75;;;;;;;31.36;29.72;94584.81;5072614;28;20560;-60